createdAt,value
2022-11-04T00:00:33.101Z,6.60
2022-11-04T00:03:02.391Z,6.70
2022-11-04T00:05:33.737Z,6.60
2022-11-04T00:08:20.067Z,6.70
2022-11-04T00:11:06.468Z,6.80
2022-11-04T00:13:35.563Z,6.80
2022-11-04T00:16:22.259Z,6.70
2022-11-04T00:18:51.432Z,6.70
2022-11-04T00:21:39.949Z,6.60
2022-11-04T00:24:28.871Z,6.60
2022-11-04T00:27:15.318Z,6.50
2022-11-04T00:29:44.612Z,6.60
2022-11-04T00:32:30.961Z,6.60
2022-11-04T00:35:00.119Z,6.50
2022-11-04T00:37:30.638Z,6.50
2022-11-04T00:40:00.095Z,6.60
2022-11-04T00:42:29.219Z,6.60
2022-11-04T00:44:58.288Z,6.60
2022-11-04T00:47:27.648Z,6.60
2022-11-04T00:49:57.194Z,6.60
2022-11-04T00:52:26.602Z,6.50
2022-11-04T00:54:57.069Z,6.50
2022-11-04T00:57:26.113Z,6.50
2022-11-04T00:59:55.409Z,6.50
2022-11-04T01:02:24.628Z,6.40
2022-11-04T01:04:53.951Z,6.50
2022-11-04T01:07:22.978Z,6.40
2022-11-04T01:09:52.140Z,6.30
2022-11-04T01:12:23.084Z,6.40
2022-11-04T01:14:52.321Z,6.40
2022-11-04T01:17:21.706Z,6.40
2022-11-04T01:19:50.783Z,6.40
2022-11-04T01:22:19.897Z,6.40
2022-11-04T01:24:49.139Z,6.50
2022-11-04T01:27:18.290Z,6.40
2022-11-04T01:29:48.660Z,6.40
2022-11-04T01:32:17.706Z,6.50
2022-11-04T01:34:48.357Z,6.50
2022-11-04T01:37:17.511Z,6.50
2022-11-04T01:39:46.720Z,6.40
2022-11-04T01:42:16.855Z,6.40
2022-11-04T01:44:56.627Z,6.40
2022-11-04T01:47:32.535Z,6.50
2022-11-04T01:50:08.591Z,6.50
2022-11-04T01:52:43.403Z,6.50
2022-11-04T01:55:17.891Z,6.50
2022-11-04T01:57:50.164Z,6.50
2022-11-04T02:00:21.196Z,6.60
2022-11-04T02:02:57.500Z,6.60
2022-11-04T02:05:26.643Z,6.60
2022-11-04T02:07:59.295Z,6.70
2022-11-04T02:10:30.033Z,6.70
2022-11-04T02:13:00.837Z,6.70
2022-11-04T02:15:41.243Z,6.70
2022-11-04T02:18:51.995Z,6.70
2022-11-04T02:21:47.633Z,6.70
2022-11-04T02:24:48.422Z,6.70
2022-11-04T02:27:39.345Z,6.80
2022-11-04T02:30:12.466Z,6.90
2022-11-04T02:33:10.196Z,6.90
2022-11-04T02:35:45.273Z,7.00
2022-11-04T02:38:23.713Z,7.10
2022-11-04T02:41:01.894Z,7.10
2022-11-04T02:43:37.716Z,7.10
2022-11-04T02:46:18.104Z,7.10
2022-11-04T02:48:50.795Z,7.20
2022-11-04T02:51:23.566Z,7.20
2022-11-04T02:54:01.738Z,7.20
2022-11-04T02:56:32.766Z,7.20
2022-11-04T02:59:07.393Z,7.20
2022-11-04T03:01:42.370Z,7.30
2022-11-04T03:04:15.770Z,7.30
2022-11-04T03:06:47.073Z,7.30
2022-11-04T03:09:18.104Z,7.30
2022-11-04T03:11:51.915Z,7.50
2022-11-04T03:14:27.439Z,7.50
2022-11-04T03:17:02.409Z,7.50
2022-11-04T03:19:39.685Z,7.50
2022-11-04T03:22:14.644Z,7.50
2022-11-04T03:24:46.177Z,7.60
2022-11-04T03:27:23.680Z,7.70
2022-11-04T03:30:01.246Z,7.70
2022-11-04T03:32:40.266Z,7.60
2022-11-04T03:35:10.278Z,7.60
2022-11-04T03:37:39.570Z,7.70
2022-11-04T03:40:10.443Z,7.80
2022-11-04T03:42:46.614Z,7.80
2022-11-04T03:45:16.254Z,7.90
2022-11-04T03:47:46.934Z,8.00
2022-11-04T03:50:22.714Z,7.90
2022-11-04T03:52:51.987Z,7.90
2022-11-04T03:55:21.951Z,7.90
2022-11-04T03:57:54.883Z,7.90
2022-11-04T04:00:25.255Z,7.90
2022-11-04T04:03:03.603Z,7.80
2022-11-04T04:05:34.910Z,7.80
2022-11-04T04:08:15.644Z,7.90
2022-11-04T04:10:51.547Z,7.90
2022-11-04T04:13:31.004Z,7.90
2022-11-04T04:16:06.163Z,7.90
2022-11-04T04:18:41.486Z,7.90
2022-11-04T04:21:16.588Z,7.90
2022-11-04T04:24:05.284Z,7.80
2022-11-04T04:26:53.712Z,7.90
2022-11-04T04:29:23.573Z,7.90
2022-11-04T04:31:58.011Z,8.00
2022-11-04T04:34:30.744Z,7.90
2022-11-04T04:37:04.044Z,8.00
2022-11-04T04:39:58.746Z,8.00
2022-11-04T04:42:45.932Z,8.00
2022-11-04T04:45:23.812Z,8.00
2022-11-04T04:47:53.690Z,8.10
2022-11-04T04:50:24.352Z,8.20
2022-11-04T04:52:56.335Z,8.20
2022-11-04T04:55:25.619Z,8.20
2022-11-04T04:57:54.695Z,8.20
2022-11-04T05:00:24.295Z,8.30
2022-11-04T05:02:53.636Z,8.30
2022-11-04T05:05:24.177Z,8.40
2022-11-04T05:07:53.323Z,8.30
2022-11-04T05:10:22.656Z,8.20
2022-11-04T05:13:09.104Z,8.30
2022-11-04T05:15:38.331Z,8.10
2022-11-04T05:18:08.853Z,8.10
2022-11-04T05:20:40.639Z,8.10
2022-11-04T05:23:12.292Z,8.20
2022-11-04T05:25:41.818Z,8.10
2022-11-04T05:28:11.233Z,8.20
2022-11-04T05:30:40.663Z,8.30
2022-11-04T05:33:10.274Z,8.40
2022-11-04T05:35:41.270Z,8.50
2022-11-04T05:38:10.457Z,8.50
2022-11-04T05:40:39.647Z,8.50
2022-11-04T05:43:09.557Z,8.50
2022-11-04T05:45:39.108Z,8.50
2022-11-04T05:48:08.488Z,8.40
2022-11-04T05:50:38.712Z,8.30
2022-11-04T05:53:09.925Z,8.30
2022-11-04T05:55:39.949Z,8.40
2022-11-04T05:58:09.789Z,8.40
2022-11-04T06:00:39.748Z,8.30
2022-11-04T06:03:12.138Z,8.30
2022-11-04T06:05:44.729Z,8.30
2022-11-04T06:08:15.561Z,8.40
2022-11-04T06:10:45.577Z,8.40
2022-11-04T06:13:14.637Z,8.40
2022-11-04T06:15:44.069Z,8.30
2022-11-04T06:18:13.311Z,8.30
2022-11-04T06:20:42.608Z,8.30
2022-11-04T06:23:11.852Z,8.30
2022-11-04T06:25:42.409Z,8.30
2022-11-04T06:28:11.843Z,8.40
2022-11-04T06:30:41.232Z,8.40
2022-11-04T06:33:10.610Z,8.40
2022-11-04T06:35:39.842Z,8.40
2022-11-04T06:38:09.845Z,8.40
2022-11-04T06:40:40.731Z,8.50
2022-11-04T06:43:11.975Z,8.60
2022-11-04T06:45:41.222Z,8.60
2022-11-04T06:48:11.072Z,8.70
2022-11-04T06:50:42.991Z,8.80
2022-11-04T06:53:12.341Z,8.90
2022-11-04T06:55:41.951Z,8.90
2022-11-04T06:58:14.281Z,8.90
2022-11-04T07:00:48.153Z,9.00
2022-11-04T07:03:18.207Z,9.00
2022-11-04T07:05:48.532Z,9.00
2022-11-04T07:08:19.320Z,9.00
2022-11-04T07:10:48.894Z,9.00
2022-11-04T07:13:19.953Z,9.10
2022-11-04T07:15:49.401Z,9.20
2022-11-04T07:18:18.972Z,9.20
2022-11-04T07:20:52.654Z,9.20
2022-11-04T07:23:22.751Z,9.20
2022-11-04T07:25:54.672Z,9.30
2022-11-04T07:28:25.681Z,9.30
2022-11-04T07:30:58.451Z,9.30
2022-11-04T07:33:29.799Z,9.30
2022-11-04T07:36:00.847Z,9.30
2022-11-04T07:38:30.767Z,9.50
2022-11-04T07:41:02.944Z,9.60
2022-11-04T07:43:34.381Z,9.70
2022-11-04T07:46:07.727Z,9.70
2022-11-04T07:48:38.192Z,9.60
2022-11-04T07:51:09.381Z,9.60
2022-11-04T07:53:38.671Z,9.60
2022-11-04T07:56:11.961Z,9.60
2022-11-04T07:58:43.491Z,9.70
2022-11-04T08:01:16.588Z,9.80
2022-11-04T08:03:47.557Z,10.00
2022-11-04T08:06:17.749Z,10.10
2022-11-04T08:08:48.565Z,10.10
2022-11-04T08:11:20.194Z,10.10
2022-11-04T08:13:51.241Z,10.00
2022-11-04T08:16:22.413Z,10.10
2022-11-04T08:18:53.201Z,10.00
2022-11-04T08:21:23.061Z,10.00
2022-11-04T08:23:52.702Z,10.10
2022-11-04T08:26:24.413Z,10.10
2022-11-04T08:28:56.212Z,10.10
2022-11-04T08:31:27.711Z,10.20
2022-11-04T08:33:58.517Z,10.20
2022-11-04T08:36:30.343Z,10.10
2022-11-04T08:39:01.461Z,10.10
2022-11-04T08:41:35.479Z,10.20
2022-11-04T08:44:07.806Z,10.10
2022-11-04T08:46:39.943Z,10.20
2022-11-04T08:49:11.265Z,10.30
2022-11-04T08:51:44.433Z,10.20
2022-11-04T08:54:14.541Z,10.20
2022-11-04T08:56:44.401Z,10.30
2022-11-04T08:59:15.487Z,10.30
2022-11-04T09:01:46.037Z,10.30
2022-11-04T09:04:16.018Z,10.30
2022-11-04T09:06:46.449Z,10.30
2022-11-04T09:09:18.284Z,10.30
2022-11-04T09:11:48.622Z,10.30
2022-11-04T09:14:19.632Z,10.40
2022-11-04T09:16:49.092Z,10.40
2022-11-04T09:19:18.524Z,10.40
2022-11-04T09:21:48.132Z,10.30
2022-11-04T09:24:17.911Z,10.30
2022-11-04T09:26:47.471Z,10.30
2022-11-04T09:29:16.913Z,10.40
2022-11-04T09:31:47.524Z,10.50
2022-11-04T09:34:18.321Z,10.50
2022-11-04T09:36:47.942Z,10.50
2022-11-04T09:39:17.930Z,10.40
2022-11-04T09:42:01.265Z,10.30
2022-11-04T09:44:59.675Z,10.50
2022-11-04T09:47:28.775Z,10.60
2022-11-04T09:50:00.744Z,10.50
2022-11-04T09:52:33.391Z,10.50
2022-11-04T09:55:09.316Z,10.50
2022-11-04T09:57:38.827Z,10.50
2022-11-04T10:00:16.303Z,10.60
2022-11-04T10:03:04.573Z,10.50
2022-11-04T10:05:43.902Z,10.50
2022-11-04T10:08:38.157Z,10.50
2022-11-04T10:11:18.999Z,10.60
2022-11-04T10:13:58.539Z,10.60
2022-11-04T10:16:43.614Z,10.50
2022-11-04T10:19:34.842Z,10.70
2022-11-04T10:22:09.102Z,10.80
2022-11-04T10:24:44.187Z,10.80
2022-11-04T10:27:18.661Z,11.00
2022-11-04T10:29:51.762Z,11.00
2022-11-04T10:32:28.185Z,11.20
2022-11-04T10:35:02.604Z,11.40
2022-11-04T10:37:32.825Z,11.50
2022-11-04T10:40:16.751Z,11.50
2022-11-04T10:42:46.172Z,11.70
2022-11-04T10:45:16.231Z,12.00
2022-11-04T10:47:54.038Z,12.00
2022-11-04T10:50:38.212Z,11.90
2022-11-04T10:53:16.043Z,12.20
2022-11-04T10:55:52.001Z,12.30
2022-11-04T10:58:26.833Z,12.40
2022-11-04T11:00:58.152Z,12.40
2022-11-04T11:03:33.221Z,12.70
2022-11-04T11:06:26.484Z,12.70
2022-11-04T11:09:00.051Z,13.10
2022-11-04T11:11:42.851Z,13.10
2022-11-04T11:14:32.661Z,13.30
2022-11-04T11:17:21.810Z,13.30
2022-11-04T11:19:56.612Z,13.10
2022-11-04T11:22:49.814Z,13.00
2022-11-04T11:25:26.122Z,13.10
2022-11-04T11:27:58.336Z,13.40
2022-11-04T11:30:32.279Z,13.60
2022-11-04T11:33:05.597Z,13.60
2022-11-04T11:35:41.821Z,13.70
2022-11-04T11:38:24.952Z,14.00
2022-11-04T11:41:23.844Z,14.10
2022-11-04T11:43:56.284Z,14.30
2022-11-04T11:46:28.598Z,14.70
2022-11-04T11:49:01.879Z,14.60
2022-11-04T11:51:34.825Z,14.60
2022-11-04T11:54:22.995Z,14.50
2022-11-04T12:02:52.257Z,14.40
2022-11-04T12:11:38.404Z,14.60
2022-11-04T12:14:12.002Z,14.30
2022-11-04T12:16:51.070Z,14.10
2022-11-04T12:19:38.171Z,14.30
2022-11-04T12:22:16.161Z,14.30
2022-11-04T12:24:56.562Z,14.30
2022-11-04T12:27:38.176Z,14.00
2022-11-04T12:30:11.816Z,13.80
2022-11-04T12:32:53.515Z,13.80
2022-11-04T12:35:48.812Z,13.70
2022-11-04T12:38:44.691Z,13.60
2022-11-04T12:41:46.655Z,13.30
2022-11-04T12:44:27.115Z,13.40
2022-11-04T12:47:05.594Z,13.60
2022-11-04T12:50:02.426Z,13.60
2022-11-04T12:52:54.983Z,13.60
2022-11-04T12:55:38.284Z,13.60
2022-11-04T12:58:25.145Z,13.60
2022-11-04T13:01:02.490Z,13.60
2022-11-04T13:03:36.794Z,13.60
2022-11-04T13:06:13.392Z,13.70
2022-11-04T13:08:49.611Z,13.50
2022-11-04T13:11:24.731Z,13.50
2022-11-04T13:14:02.379Z,13.60
2022-11-04T13:16:39.297Z,13.50
2022-11-04T13:19:16.801Z,13.50
2022-11-04T13:21:46.961Z,13.40
2022-11-04T13:24:22.671Z,13.50
2022-11-04T13:26:53.851Z,13.60
2022-11-04T13:29:26.094Z,13.60
2022-11-04T13:32:03.623Z,13.60
2022-11-04T13:34:42.551Z,13.50
2022-11-04T13:37:20.971Z,13.40
2022-11-04T13:39:55.035Z,13.50
2022-11-04T13:42:54.392Z,13.60
2022-11-04T13:45:23.833Z,13.50
2022-11-04T13:47:57.883Z,13.30
2022-11-04T13:50:35.991Z,13.30
2022-11-04T13:53:07.724Z,13.30
2022-11-04T13:55:39.512Z,13.30
2022-11-04T13:58:09.705Z,13.30
2022-11-04T14:00:40.508Z,13.20
2022-11-04T14:03:50.122Z,13.20
2022-11-04T14:06:19.687Z,13.00
2022-11-04T14:09:22.391Z,12.90
2022-11-04T14:12:30.911Z,12.80
2022-11-04T14:15:09.562Z,12.70
2022-11-04T14:18:12.865Z,12.70
2022-11-04T14:21:03.953Z,12.60
2022-11-04T14:23:34.232Z,12.50
2022-11-04T14:26:06.403Z,12.40
2022-11-04T14:28:36.831Z,12.30
2022-11-04T14:31:14.012Z,12.30
2022-11-04T14:33:55.224Z,12.20
2022-11-04T14:36:38.703Z,12.20
2022-11-04T14:39:22.433Z,12.20
2022-11-04T14:41:57.972Z,12.30
2022-11-04T14:44:34.083Z,12.30
2022-11-04T14:47:15.762Z,12.20
2022-11-04T14:49:49.263Z,12.20
2022-11-04T14:52:29.692Z,12.10
2022-11-04T14:55:09.734Z,12.10
2022-11-04T14:57:41.601Z,12.00
2022-11-04T15:00:40.811Z,12.00
2022-11-04T15:03:52.097Z,11.90
2022-11-04T15:06:12.584Z,11.90
2022-11-04T15:08:47.621Z,11.80
2022-11-04T15:11:39.191Z,11.80
2022-11-04T15:14:16.893Z,11.80
2022-11-04T15:16:49.272Z,11.70
2022-11-04T15:19:29.306Z,11.70
2022-11-04T15:22:04.814Z,11.60
2022-11-04T15:24:37.656Z,11.60
2022-11-04T15:27:08.883Z,11.60
2022-11-04T15:29:38.982Z,11.50
2022-11-04T15:32:09.701Z,11.50
2022-11-04T15:34:39.611Z,11.50
2022-11-04T15:37:10.655Z,11.50
2022-11-04T15:39:45.863Z,11.40
2022-11-04T15:42:40.929Z,11.50
2022-11-04T15:45:35.291Z,11.60
2022-11-04T15:48:29.694Z,11.60
2022-11-04T15:51:16.854Z,11.40
2022-11-04T15:53:56.122Z,11.40
2022-11-04T15:56:30.855Z,11.40
2022-11-04T15:59:02.150Z,11.40
2022-11-04T16:01:33.694Z,11.50
2022-11-04T16:04:03.992Z,11.40
2022-11-04T16:06:38.332Z,11.40
2022-11-04T16:09:23.331Z,11.40
2022-11-04T16:12:09.873Z,11.30
2022-11-04T16:14:39.651Z,11.30
2022-11-04T16:17:12.964Z,11.30
2022-11-04T16:19:46.617Z,11.30
2022-11-04T16:22:22.590Z,11.30
2022-11-04T16:24:56.363Z,11.30
2022-11-04T16:27:28.331Z,11.30
2022-11-04T16:30:05.182Z,11.30
2022-11-04T16:32:44.391Z,11.40
2022-11-04T16:35:18.491Z,11.40
2022-11-04T16:37:50.622Z,11.30
2022-11-04T16:40:21.281Z,11.40
2022-11-04T16:42:52.946Z,11.40
2022-11-04T16:45:27.661Z,11.30
2022-11-04T16:47:58.111Z,11.20
2022-11-04T16:50:28.032Z,11.20
2022-11-04T16:52:58.035Z,11.20
2022-11-04T16:55:28.180Z,11.30
2022-11-04T16:58:02.823Z,11.30
2022-11-04T17:00:33.832Z,11.30
2022-11-04T17:03:06.449Z,11.30
2022-11-04T17:05:36.621Z,11.20
2022-11-04T17:08:07.404Z,11.20
2022-11-04T17:10:38.305Z,11.30
2022-11-04T17:13:10.052Z,11.20
2022-11-04T17:15:40.680Z,11.20
2022-11-04T17:18:12.582Z,11.20
2022-11-04T17:20:43.953Z,11.10
2022-11-04T17:23:15.699Z,11.10
2022-11-04T17:25:45.553Z,11.10
2022-11-04T17:28:16.962Z,11.10
2022-11-04T17:30:47.175Z,11.10
2022-11-04T17:33:17.676Z,11.10
2022-11-04T17:35:50.903Z,11.10
2022-11-04T17:38:21.421Z,11.10
2022-11-04T17:41:08.741Z,11.00
2022-11-04T17:43:57.602Z,11.00
2022-11-04T17:46:36.321Z,11.10
2022-11-04T17:49:12.051Z,11.00
2022-11-04T17:51:43.435Z,11.00
2022-11-04T17:54:13.616Z,11.10
2022-11-04T17:56:45.101Z,11.00
2022-11-04T17:59:18.193Z,11.00
2022-11-04T18:01:48.728Z,11.00
2022-11-04T18:04:22.286Z,10.90
2022-11-04T18:06:59.869Z,10.90
2022-11-04T18:09:33.071Z,11.00
2022-11-04T18:12:20.247Z,10.90
2022-11-04T18:14:51.728Z,10.90
2022-11-04T18:17:25.355Z,10.80
2022-11-04T18:19:54.980Z,10.90
2022-11-04T18:22:25.650Z,10.90
2022-11-04T18:24:57.019Z,10.90
2022-11-04T18:27:27.086Z,10.90
2022-11-04T18:29:58.418Z,10.90
2022-11-04T18:32:31.012Z,10.80
2022-11-04T18:35:00.820Z,10.90
2022-11-04T18:37:31.704Z,10.90
2022-11-04T18:40:02.234Z,10.80
2022-11-04T18:42:33.255Z,10.80
2022-11-04T18:45:06.392Z,10.80
2022-11-04T18:47:43.011Z,10.80
2022-11-04T18:50:13.586Z,10.80
2022-11-04T18:52:43.531Z,10.70
2022-11-04T18:55:13.063Z,10.80
2022-11-04T18:57:43.103Z,10.90
2022-11-04T19:00:17.433Z,10.90
2022-11-04T19:02:48.153Z,10.90
2022-11-04T19:05:18.585Z,10.90
2022-11-04T19:07:48.560Z,10.90
2022-11-04T19:10:18.175Z,10.90
2022-11-04T19:13:04.802Z,10.90
2022-11-04T19:15:40.402Z,10.90
2022-11-04T19:18:11.295Z,10.90
2022-11-04T19:20:41.175Z,10.90
2022-11-04T19:23:11.394Z,10.90
2022-11-04T19:25:42.894Z,10.90
2022-11-04T19:28:34.504Z,10.90
2022-11-04T19:31:05.418Z,10.90
2022-11-04T19:33:37.687Z,10.80
2022-11-04T19:36:09.021Z,10.80
2022-11-04T19:38:39.052Z,10.80
2022-11-04T19:41:33.217Z,10.70
2022-11-04T19:44:03.081Z,10.70
2022-11-04T19:46:34.759Z,10.80
2022-11-04T19:49:05.557Z,10.90
2022-11-04T19:51:36.627Z,10.80
2022-11-04T19:54:09.841Z,10.70
2022-11-04T19:56:40.417Z,10.70
2022-11-04T19:59:10.954Z,10.70
2022-11-04T20:01:42.503Z,10.70
2022-11-04T20:04:12.694Z,10.70
2022-11-04T20:06:42.603Z,10.70
2022-11-04T20:09:13.274Z,10.70
2022-11-04T20:12:10.154Z,10.80
2022-11-04T20:14:40.212Z,10.80
2022-11-04T20:17:12.062Z,10.80
2022-11-04T20:19:41.518Z,10.70
2022-11-04T20:22:11.293Z,10.70
2022-11-04T20:24:41.091Z,10.70
2022-11-04T20:27:15.812Z,10.60
2022-11-04T20:29:49.074Z,10.60
2022-11-04T20:32:20.732Z,10.70
2022-11-04T20:34:50.667Z,10.60
2022-11-04T20:37:20.646Z,10.60
2022-11-04T20:39:50.314Z,10.60
2022-11-04T20:42:20.000Z,10.60
2022-11-04T20:44:49.333Z,10.60
2022-11-04T20:47:20.472Z,10.60
2022-11-04T20:49:51.727Z,10.50
2022-11-04T20:52:22.275Z,10.50
2022-11-04T20:54:52.681Z,10.50
2022-11-04T20:57:22.698Z,10.50
2022-11-04T20:59:53.903Z,10.50
2022-11-04T21:02:26.699Z,10.50
2022-11-04T21:04:56.483Z,10.40
2022-11-04T21:07:26.687Z,10.40
2022-11-04T21:09:56.332Z,10.30
2022-11-04T21:12:25.740Z,10.40
2022-11-04T21:14:55.020Z,10.40
2022-11-04T21:17:26.074Z,10.50
2022-11-04T21:19:56.069Z,10.40
2022-11-04T21:22:26.132Z,10.50
2022-11-04T21:24:56.048Z,10.40
2022-11-04T21:27:25.716Z,10.40
2022-11-04T21:29:55.533Z,10.40
2022-11-04T21:32:26.726Z,10.40
2022-11-04T21:34:56.712Z,10.30
2022-11-04T21:37:26.972Z,10.40
2022-11-04T21:39:56.972Z,10.40
2022-11-04T21:42:26.592Z,10.40
2022-11-04T21:45:01.048Z,10.50
2022-11-04T21:47:32.750Z,10.40
2022-11-04T21:50:02.562Z,10.40
2022-11-04T21:52:33.386Z,10.40
2022-11-04T21:55:05.323Z,10.40
2022-11-04T21:57:40.521Z,10.40
2022-11-04T22:00:15.547Z,10.30
2022-11-04T22:02:47.741Z,10.30
2022-11-04T22:05:17.912Z,10.30
2022-11-04T22:08:04.541Z,10.40
2022-11-04T22:10:34.543Z,10.30
2022-11-04T22:13:04.143Z,10.30
2022-11-04T22:15:51.248Z,10.30
2022-11-04T22:18:22.470Z,10.30
2022-11-04T22:20:51.830Z,10.30
2022-11-04T22:23:21.204Z,10.10
2022-11-04T22:25:50.622Z,10.20
2022-11-04T22:28:21.220Z,10.20
2022-11-04T22:30:50.451Z,10.20
2022-11-04T22:33:20.410Z,10.10
2022-11-04T22:35:56.442Z,10.10
2022-11-04T22:38:28.305Z,10.10
2022-11-04T22:40:58.576Z,10.20
2022-11-04T22:43:28.493Z,10.20
2022-11-04T22:45:58.830Z,10.20
2022-11-04T22:48:28.544Z,10.30
2022-11-04T22:51:02.270Z,10.20
2022-11-04T22:53:31.460Z,10.20
2022-11-04T22:56:01.866Z,10.20
2022-11-04T22:58:31.391Z,10.30
2022-11-04T23:01:04.556Z,10.30
2022-11-04T23:03:35.654Z,10.20
2022-11-04T23:06:10.244Z,10.30
2022-11-04T23:08:41.669Z,10.30
2022-11-04T23:11:30.741Z,10.30
2022-11-04T23:14:26.100Z,10.40
2022-11-04T23:17:12.349Z,10.30
2022-11-04T23:19:41.680Z,10.30
2022-11-04T23:22:30.063Z,10.30
2022-11-04T23:25:10.047Z,10.30
2022-11-04T23:27:58.953Z,10.30
2022-11-04T23:30:31.130Z,10.30
2022-11-04T23:33:01.883Z,10.20
2022-11-04T23:35:51.104Z,10.30
2022-11-04T23:38:21.684Z,10.30
2022-11-04T23:41:05.726Z,10.30
2022-11-04T23:43:35.139Z,10.40
2022-11-04T23:46:21.445Z,10.30
2022-11-04T23:49:07.913Z,10.40
2022-11-04T23:51:54.717Z,10.40
2022-11-04T23:54:42.441Z,10.30
2022-11-04T23:57:32.136Z,10.30
